createdAt,value
2018-09-25T00:01:38.632Z,100355.58
2018-09-25T00:04:12.482Z,100353.77
2018-09-25T00:06:46.216Z,100354.23
2018-09-25T00:09:19.690Z,100359.66
2018-09-25T00:11:53.148Z,100365.47
2018-09-25T00:14:26.708Z,100367.34
2018-09-25T00:17:00.200Z,100374.45
2018-09-25T00:19:33.800Z,100368.20
2018-09-25T00:22:07.317Z,100365.99
2018-09-25T00:24:40.821Z,100369.07
2018-09-25T00:27:14.512Z,100363.30
2018-09-25T00:29:48.274Z,100361.14
2018-09-25T00:32:21.945Z,100371.03
2018-09-25T00:34:55.682Z,100365.25
2018-09-25T00:37:29.393Z,100373.71
2018-09-25T00:40:03.017Z,100368.39
2018-09-25T00:42:36.416Z,100373.77
2018-09-25T00:45:10.051Z,100373.38
2018-09-25T00:47:43.548Z,100373.84
2018-09-25T00:50:17.164Z,100371.16
2018-09-25T00:52:50.928Z,100369.34
2018-09-25T00:55:24.716Z,100370.29
2018-09-25T01:00:48.682Z,100362.22
2018-09-25T01:03:22.323Z,100357.77
2018-09-25T01:05:55.903Z,100357.29
2018-09-25T01:08:29.595Z,100355.95
2018-09-25T01:11:03.074Z,100358.23
2018-09-25T01:13:36.723Z,100361.80
2018-09-25T01:16:10.212Z,100363.22
2018-09-25T01:18:43.809Z,100365.44
2018-09-25T01:21:17.196Z,100369.94
2018-09-25T01:23:50.885Z,100364.57
2018-09-25T01:29:15.617Z,100361.45
2018-09-25T01:31:49.228Z,100357.90
2018-09-25T01:34:22.837Z,100367.30
2018-09-25T01:36:56.539Z,100365.48
2018-09-25T01:39:29.989Z,100368.17
2018-09-25T01:42:03.557Z,100365.48
2018-09-25T01:44:37.273Z,100363.27
2018-09-25T01:47:10.967Z,100351.66
2018-09-25T01:49:44.739Z,100351.66
2018-09-25T01:52:18.286Z,100342.72
2018-09-25T01:54:51.922Z,100353.87
2018-09-25T01:57:25.521Z,100355.69
2018-09-25T01:59:59.235Z,100358.84
2018-09-25T02:02:32.773Z,100360.63
2018-09-25T02:05:06.190Z,100362.87
2018-09-25T02:07:39.695Z,100357.95
2018-09-25T02:10:13.239Z,100364.66
2018-09-25T02:12:46.875Z,100365.57
2018-09-25T02:15:20.572Z,100368.30
2018-09-25T02:17:53.988Z,100375.89
2018-09-25T02:20:27.687Z,100363.88
2018-09-25T02:23:01.156Z,100369.65
2018-09-25T02:25:34.791Z,100375.42
2018-09-25T02:28:08.613Z,100374.16
2018-09-25T02:30:42.173Z,100383.09
2018-09-25T02:33:15.648Z,100384.91
2018-09-25T02:35:49.339Z,100381.80
2018-09-25T02:38:22.912Z,100381.80
2018-09-25T02:40:56.580Z,100385.38
2018-09-25T02:43:30.181Z,100388.52
2018-09-25T02:46:03.884Z,100382.74
2018-09-25T02:48:37.624Z,100393.97
2018-09-25T02:51:11.391Z,100390.80
2018-09-25T02:53:45.115Z,100398.40
2018-09-25T02:56:18.855Z,100387.25
2018-09-25T02:58:52.682Z,100397.13
2018-09-25T03:01:26.168Z,100398.00
2018-09-25T03:03:59.959Z,100392.63
2018-09-25T03:06:33.770Z,100392.63
2018-09-25T03:09:07.310Z,100392.11
2018-09-25T03:11:40.827Z,100396.92
2018-09-25T03:14:14.859Z,100396.53
2018-09-25T03:16:48.444Z,100389.41
2018-09-25T03:19:22.027Z,100385.48
2018-09-25T03:21:55.652Z,100387.77
2018-09-25T03:24:29.267Z,100385.09
2018-09-25T03:27:02.851Z,100385.95
2018-09-25T03:29:36.487Z,100386.38
2018-09-25T03:32:10.247Z,100385.48
2018-09-25T03:34:43.728Z,100385.61
2018-09-25T03:37:17.288Z,100384.87
2018-09-25T03:39:50.861Z,100385.31
2018-09-25T03:42:24.568Z,100387.57
2018-09-25T03:44:58.034Z,100388.05
2018-09-25T03:47:31.652Z,100380.50
2018-09-25T03:50:05.263Z,100385.48
2018-09-25T03:52:38.897Z,100387.22
2018-09-25T03:55:12.663Z,100384.19
2018-09-25T03:57:46.327Z,100381.80
2018-09-25T04:00:19.891Z,100379.23
2018-09-25T04:02:53.363Z,100386.83
2018-09-25T04:05:26.771Z,100393.13
2018-09-25T04:08:07.219Z,100394.67
2018-09-25T04:10:41.063Z,100392.50
2018-09-25T04:13:14.771Z,100391.64
2018-09-25T04:15:48.235Z,100393.89
2018-09-25T04:18:21.862Z,100399.70
2018-09-25T04:20:55.540Z,100401.52
2018-09-25T04:23:29.209Z,100409.58
2018-09-25T04:26:02.666Z,100412.70
2018-09-25T04:28:37.014Z,100413.26
2018-09-25T04:31:10.676Z,100410.62
2018-09-25T04:33:44.424Z,100419.07
2018-09-25T04:36:17.985Z,100419.63
2018-09-25T04:38:51.549Z,100420.84
2018-09-25T04:41:25.240Z,100414.59
2018-09-25T04:43:59.105Z,100413.61
2018-09-25T04:46:32.768Z,100414.88
2018-09-25T04:49:06.426Z,100425.49
2018-09-25T04:51:40.142Z,100433.98
2018-09-25T04:54:13.749Z,100434.85
2018-09-25T04:56:47.350Z,100432.99
2018-09-25T04:59:20.965Z,100432.04
2018-09-25T05:01:54.505Z,100434.33
2018-09-25T05:04:28.088Z,100441.45
2018-09-25T05:07:01.627Z,100443.19
2018-09-25T05:09:35.161Z,100452.16
2018-09-25T05:12:08.851Z,100455.70
2018-09-25T05:14:42.599Z,100454.36
2018-09-25T05:17:16.270Z,100458.96
2018-09-25T05:19:49.927Z,100455.88
2018-09-25T05:22:23.659Z,100463.47
2018-09-25T05:24:57.324Z,100461.20
2018-09-25T05:27:30.971Z,100459.86
2018-09-25T05:30:04.551Z,100463.81
2018-09-25T05:32:38.437Z,100468.72
2018-09-25T05:35:12.097Z,100466.50
2018-09-25T05:37:45.643Z,100464.29
2018-09-25T05:40:19.237Z,100472.00
2018-09-25T05:42:52.827Z,100468.38
2018-09-25T05:45:26.526Z,100466.22
2018-09-25T05:48:00.323Z,100476.61
2018-09-25T05:50:34.371Z,100480.64
2018-09-25T05:53:08.129Z,100482.29
2018-09-25T05:55:42.014Z,100477.79
2018-09-25T05:58:15.513Z,100478.19
2018-09-25T06:00:49.136Z,100481.77
2018-09-25T06:03:22.733Z,100484.38
2018-09-25T06:05:56.256Z,100483.98
2018-09-25T06:08:30.195Z,100485.73
2018-09-25T06:11:03.659Z,100490.19
2018-09-25T06:13:37.251Z,100491.56
2018-09-25T06:16:10.890Z,100497.76
2018-09-25T06:18:44.639Z,100496.19
2018-09-25T06:21:18.103Z,100498.88
2018-09-25T06:23:51.667Z,100495.80
2018-09-25T06:26:25.279Z,100505.64
2018-09-25T06:28:58.893Z,100503.42
2018-09-25T06:31:32.691Z,100505.76
2018-09-25T06:34:06.453Z,100509.44
2018-09-25T06:36:40.154Z,100515.09
2018-09-25T06:39:14.337Z,100513.75
2018-09-25T06:41:48.042Z,100521.73
2018-09-25T06:44:21.503Z,100517.70
2018-09-25T06:46:55.203Z,100519.44
2018-09-25T06:49:28.942Z,100539.55
2018-09-25T06:52:02.662Z,100536.38
2018-09-25T06:54:36.474Z,100536.31
2018-09-25T06:57:10.113Z,100539.00
2018-09-25T06:59:43.636Z,100539.47
2018-09-25T07:02:17.276Z,100542.59
2018-09-25T07:04:50.858Z,100541.69
2018-09-25T07:07:24.535Z,100547.05
2018-09-25T07:09:58.161Z,100545.27
2018-09-25T07:12:31.669Z,100546.62
2018-09-25T07:15:05.155Z,100542.98
2018-09-25T07:17:38.838Z,100545.72
2018-09-25T07:20:12.306Z,100547.96
2018-09-25T07:22:45.935Z,100546.62
2018-09-25T07:25:19.499Z,100537.13
2018-09-25T07:27:53.196Z,100538.48
2018-09-25T07:30:26.631Z,100550.17
2018-09-25T07:33:00.307Z,100551.05
2018-09-25T07:35:33.758Z,100550.57
2018-09-25T07:38:07.306Z,100546.06
2018-09-25T07:40:41.005Z,100555.47
2018-09-25T07:43:14.619Z,100558.23
2018-09-25T07:45:48.216Z,100559.50
2018-09-25T07:48:21.905Z,100557.25
2018-09-25T07:50:55.350Z,100551.44
2018-09-25T07:53:28.793Z,100552.78
2018-09-25T07:56:02.391Z,100561.28
2018-09-25T07:58:36.015Z,100563.89
2018-09-25T08:01:09.551Z,100559.50
2018-09-25T08:03:43.379Z,100553.69
2018-09-25T08:06:16.899Z,100554.56
2018-09-25T08:08:50.517Z,100558.59
2018-09-25T08:11:24.147Z,100553.69
2018-09-25T08:13:57.555Z,100558.59
2018-09-25T08:16:31.003Z,100556.30
2018-09-25T08:19:04.623Z,100556.38
2018-09-25T08:21:38.125Z,100554.56
2018-09-25T08:24:12.031Z,100555.47
2018-09-25T08:26:45.639Z,100557.25
2018-09-25T08:29:19.579Z,100553.22
2018-09-25T08:31:53.376Z,100544.28
2018-09-25T08:34:27.002Z,100549.19
2018-09-25T08:37:00.706Z,100541.59
2018-09-25T08:39:34.372Z,100546.50
2018-09-25T08:42:07.754Z,100548.31
2018-09-25T08:44:41.497Z,100554.95
2018-09-25T08:47:15.247Z,100551.00
2018-09-25T08:49:48.990Z,100546.54
2018-09-25T08:52:22.455Z,100546.54
2018-09-25T08:54:56.067Z,100555.08
2018-09-25T08:57:29.695Z,100553.78
2018-09-25T09:00:03.409Z,100558.16
2018-09-25T09:02:37.032Z,100548.83
2018-09-25T09:05:10.893Z,100540.77
2018-09-25T09:07:44.633Z,100549.30
2018-09-25T09:10:18.328Z,100552.39
2018-09-25T09:12:51.980Z,100551.05
2018-09-25T09:15:25.460Z,100551.99
2018-09-25T09:17:59.169Z,100551.52
2018-09-25T09:20:32.858Z,100560.92
2018-09-25T09:23:06.311Z,100559.98
2018-09-25T09:25:40.033Z,100568.04
2018-09-25T09:28:13.493Z,100562.19
2018-09-25T09:30:47.203Z,100554.12
2018-09-25T09:33:20.637Z,100554.12
2018-09-25T09:35:54.239Z,100562.55
2018-09-25T09:38:27.843Z,100563.97
2018-09-25T09:41:01.505Z,100565.70
2018-09-25T09:43:34.967Z,100560.33
2018-09-25T09:46:08.535Z,100567.13
2018-09-25T09:48:42.203Z,100562.63
2018-09-25T09:51:15.757Z,100565.31
2018-09-25T09:53:49.322Z,100559.94
2018-09-25T09:56:22.901Z,100550.53
2018-09-25T09:58:56.331Z,100557.64
2018-09-25T10:01:29.891Z,100551.00
2018-09-25T10:04:03.298Z,100553.69
2018-09-25T10:06:36.775Z,100548.59
2018-09-25T10:09:13.550Z,100550.41
2018-09-25T10:11:47.601Z,100547.25
2018-09-25T10:14:21.888Z,100553.09
2018-09-25T10:16:55.283Z,100544.28
2018-09-25T10:19:28.767Z,100546.97
2018-09-25T10:22:02.431Z,100538.44
2018-09-25T10:24:36.083Z,100542.47
2018-09-25T10:27:09.648Z,100535.80
2018-09-25T10:29:43.276Z,100533.53
2018-09-25T10:32:16.907Z,100536.22
2018-09-25T10:34:50.594Z,100534.92
2018-09-25T10:37:24.313Z,100526.34
2018-09-25T10:39:58.115Z,100535.39
2018-09-25T10:42:31.975Z,100535.16
2018-09-25T10:45:05.691Z,100534.28
2018-09-25T10:47:39.297Z,100529.83
2018-09-25T10:50:13.085Z,100538.71
2018-09-25T10:52:46.487Z,100532.94
2018-09-25T10:55:20.123Z,100536.90
2018-09-25T10:57:53.657Z,100534.28
2018-09-25T11:00:27.308Z,100530.13
2018-09-25T11:03:00.836Z,100527.45
2018-09-25T11:05:34.354Z,100516.81
2018-09-25T11:08:07.931Z,100515.95
2018-09-25T11:10:41.348Z,100516.81
2018-09-25T11:13:14.913Z,100512.78
2018-09-25T11:15:48.494Z,100506.06
2018-09-25T11:18:22.130Z,100509.23
2018-09-25T11:20:55.627Z,100499.34
2018-09-25T11:23:29.150Z,100509.16
2018-09-25T11:26:02.704Z,100502.39
2018-09-25T11:28:36.375Z,100495.67
2018-09-25T11:31:10.097Z,100493.03
2018-09-25T11:33:43.865Z,100495.20
2018-09-25T11:36:17.630Z,100491.20
2018-09-25T11:38:51.147Z,100489.47
2018-09-25T11:41:24.795Z,100492.63
2018-09-25T11:43:58.461Z,100486.43
2018-09-25T11:46:32.055Z,100488.17
2018-09-25T11:49:05.672Z,100483.63
2018-09-25T11:51:39.296Z,100481.88
2018-09-25T11:54:13.046Z,100477.77
2018-09-25T11:56:46.714Z,100489.47
2018-09-25T11:59:20.437Z,100479.11
2018-09-25T12:01:53.939Z,100465.80
2018-09-25T12:04:27.643Z,100463.59
2018-09-25T12:07:01.124Z,100465.67
2018-09-25T12:09:34.867Z,100470.14
2018-09-25T12:12:08.376Z,100472.95
2018-09-25T12:14:42.021Z,100465.33
2018-09-25T12:17:16.566Z,100472.95
2018-09-25T12:19:50.044Z,100460.43
2018-09-25T12:22:23.585Z,100460.50
2018-09-25T12:24:57.091Z,100461.73
2018-09-25T12:27:30.651Z,100457.27
2018-09-25T12:30:04.175Z,100451.50
2018-09-25T12:32:37.761Z,100452.02
2018-09-25T12:35:11.353Z,100455.92
2018-09-25T12:37:44.829Z,100460.08
2018-09-25T12:40:18.328Z,100452.45
2018-09-25T12:42:52.059Z,100451.02
2018-09-25T12:45:25.649Z,100459.00
2018-09-25T12:47:59.255Z,100463.03
2018-09-25T12:50:32.763Z,100455.23
2018-09-25T12:53:06.335Z,100453.03
2018-09-25T12:55:39.942Z,100449.91
2018-09-25T13:21:13.101Z,100343.22
2018-09-25T13:23:49.216Z,100348.86
2018-09-25T13:26:23.948Z,100342.53
2018-09-25T13:28:59.390Z,100340.16
2018-09-25T13:31:34.088Z,100329.73
2018-09-25T13:34:12.127Z,100337.56
2018-09-25T13:36:49.715Z,100333.08
2018-09-25T13:39:24.393Z,100331.66
2018-09-25T13:41:58.979Z,100330.42
2018-09-25T13:49:50.319Z,100312.50
2018-09-25T13:52:27.536Z,100310.54
2018-09-25T13:55:03.670Z,100301.70
2018-09-25T13:57:39.454Z,100303.58
2018-09-25T14:00:16.818Z,100301.27
2018-09-25T14:02:53.586Z,100295.27
2018-09-25T14:05:31.080Z,100298.69
2018-09-25T14:08:07.141Z,100309.48
2018-09-25T14:10:44.005Z,100300.91
2018-09-25T14:13:19.562Z,100297.19
2018-09-25T14:15:56.179Z,100291.52
2018-09-25T14:18:31.640Z,100284.94
2018-09-25T14:21:09.381Z,100284.45
2018-09-25T14:23:47.193Z,100295.54
2018-09-25T14:26:21.240Z,100300.22
2018-09-25T14:28:57.351Z,100303.02
2018-09-25T14:32:04.440Z,100293.52
2018-09-25T14:34:41.089Z,100291.48
2018-09-25T14:37:16.497Z,100284.77
2018-09-25T14:39:50.573Z,100297.13
2018-09-25T14:42:25.374Z,100297.13
2018-09-25T14:45:00.006Z,100290.27
2018-09-25T14:47:35.559Z,100283.50
2018-09-25T14:50:10.456Z,100282.27
2018-09-25T14:52:46.839Z,100287.90
2018-09-25T14:55:21.696Z,100283.47
2018-09-25T14:57:58.151Z,100282.16
2018-09-25T15:00:35.740Z,100281.52
2018-09-25T15:03:10.574Z,100274.47
2018-09-25T15:05:48.228Z,100273.61
2018-09-25T15:08:29.986Z,100268.72
2018-09-25T15:11:09.817Z,100264.31
2018-09-25T15:13:44.010Z,100266.06
2018-09-25T15:16:18.778Z,100274.20
2018-09-25T15:18:54.333Z,100270.45
2018-09-25T15:21:31.597Z,100273.13
2018-09-25T15:24:09.724Z,100268.11
2018-09-25T15:26:49.523Z,100266.57
2018-09-25T15:29:27.122Z,100264.11
2018-09-25T15:32:00.869Z,100266.28
2018-09-25T15:34:36.561Z,100265.48
2018-09-25T15:37:12.679Z,100269.98
2018-09-25T15:39:49.360Z,100267.42
2018-09-25T15:42:25.209Z,100258.86
2018-09-25T15:45:04.643Z,100258.48
2018-09-25T15:47:41.010Z,100256.02
2018-09-25T15:50:17.151Z,100259.98
2018-09-25T15:52:55.398Z,100259.31
2018-09-25T15:55:36.338Z,100250.44
2018-09-25T15:58:17.432Z,100253.18
2018-09-25T16:00:56.138Z,100251.83
2018-09-25T16:03:31.433Z,100250.77
2018-09-25T16:08:47.325Z,100249.83
2018-09-25T16:11:22.645Z,100255.61
2018-09-25T16:13:57.922Z,100256.18
2018-09-25T16:16:33.834Z,100263.55
2018-09-25T16:19:11.542Z,100260.66
2018-09-25T16:21:45.450Z,100257.78
2018-09-25T16:24:24.291Z,100264.51
2018-09-25T16:27:01.447Z,100266.02
2018-09-25T16:29:38.696Z,100276.22
2018-09-25T16:32:14.702Z,100275.16
2018-09-25T16:34:50.455Z,100280.26
2018-09-25T16:37:26.297Z,100276.48
2018-09-25T16:40:04.926Z,100275.14
2018-09-25T16:42:42.433Z,100281.77
2018-09-25T16:45:18.981Z,100294.20
2018-09-25T16:47:57.916Z,100290.54
2018-09-25T16:50:35.107Z,100291.51
2018-09-25T16:53:12.185Z,100294.20
2018-09-25T16:55:50.658Z,100292.40
2018-09-25T16:58:30.247Z,100294.58
2018-09-25T17:01:06.017Z,100291.58
2018-09-25T17:03:42.048Z,100289.36
2018-09-25T17:06:17.499Z,100295.34
2018-09-25T17:08:53.455Z,100293.48
2018-09-25T17:11:30.540Z,100293.89
2018-09-25T17:14:07.417Z,100299.98
2018-09-25T17:16:42.161Z,100295.25
2018-09-25T17:19:16.770Z,100295.49
2018-09-25T17:21:53.956Z,100305.81
2018-09-25T17:24:30.450Z,100303.32
2018-09-25T17:27:06.074Z,100298.55
2018-09-25T17:29:41.102Z,100300.88
2018-09-25T17:32:19.216Z,100302.35
2018-09-25T17:35:01.831Z,100298.00
2018-09-25T17:37:41.884Z,100293.25
2018-09-25T17:40:16.206Z,100300.38
2018-09-25T17:42:51.842Z,100292.06
2018-09-25T17:45:24.758Z,100295.59
2018-09-25T17:47:57.686Z,100300.06
2018-09-25T17:50:30.746Z,100302.75
2018-09-25T17:53:03.714Z,100299.23
2018-09-25T17:55:36.702Z,100301.92
2018-09-25T17:58:09.795Z,100310.33
2018-09-25T18:00:42.767Z,100315.63
2018-09-25T18:03:16.350Z,100322.22
2018-09-25T18:05:49.370Z,100321.81
2018-09-25T18:08:22.350Z,100331.50
2018-09-25T18:11:26.525Z,100339.86
2018-09-25T18:13:59.702Z,100335.02
2018-09-25T18:16:32.750Z,100327.79
2018-09-25T18:19:05.780Z,100334.35
2018-09-25T18:21:38.861Z,100329.88
2018-09-25T18:24:11.964Z,100343.53
2018-09-25T18:26:44.911Z,100349.18
2018-09-25T18:29:17.977Z,100349.95
2018-09-25T18:31:50.973Z,100356.55
2018-09-25T18:34:23.858Z,100360.33
2018-09-25T18:36:56.959Z,100368.22
2018-09-25T18:39:30.039Z,100370.50
2018-09-25T18:42:03.028Z,100361.03
2018-09-25T18:44:35.999Z,100366.17
2018-09-25T18:47:08.976Z,100363.77
2018-09-25T18:49:42.032Z,100374.45
2018-09-25T18:52:15.084Z,100360.69
2018-09-25T18:54:48.186Z,100359.10
2018-09-25T18:57:21.152Z,100363.52
2018-09-25T18:59:54.245Z,100365.36
2018-09-25T19:02:27.208Z,100360.62
2018-09-25T19:05:00.164Z,100365.59
2018-09-25T19:07:33.242Z,100368.73
2018-09-25T19:10:06.411Z,100368.77
2018-09-25T19:12:39.311Z,100374.50
2018-09-25T19:15:12.335Z,100373.38
2018-09-25T19:17:45.526Z,100382.84
2018-09-25T19:20:18.457Z,100384.34
2018-09-25T19:22:51.437Z,100389.03
2018-09-25T19:25:24.448Z,100387.48
2018-09-25T19:27:57.590Z,100395.19
2018-09-25T19:30:30.665Z,100405.00
2018-09-25T19:33:03.605Z,100409.75
2018-09-25T19:35:36.644Z,100408.94
2018-09-25T19:38:09.487Z,100399.00
2018-09-25T19:40:42.526Z,100389.95
2018-09-25T19:43:15.538Z,100392.06
2018-09-25T19:45:48.612Z,100397.03
2018-09-25T19:48:21.741Z,100388.38
2018-09-25T19:50:54.819Z,100398.30
2018-09-25T19:53:27.788Z,100392.66
2018-09-25T19:56:00.862Z,100404.59
2018-09-25T19:58:33.792Z,100413.11
2018-09-25T20:01:06.997Z,100409.41
2018-09-25T20:03:39.939Z,100409.13
2018-09-25T20:06:13.249Z,100411.41
2018-09-25T20:08:47.033Z,100408.91
2018-09-25T20:11:20.032Z,100407.19
2018-09-25T20:13:53.144Z,100410.37
2018-09-25T20:16:26.206Z,100411.86
2018-09-25T20:18:59.168Z,100409.09
2018-09-25T20:21:32.182Z,100395.16
2018-09-25T20:24:05.468Z,100396.66
2018-09-25T20:26:38.363Z,100395.72
2018-09-25T20:29:11.701Z,100392.28
2018-09-25T20:31:44.749Z,100390.95
2018-09-25T20:34:17.840Z,100397.64
2018-09-25T20:36:50.688Z,100387.07
2018-09-25T20:39:23.606Z,100381.58
2018-09-25T20:41:56.570Z,100383.10
2018-09-25T20:44:29.554Z,100389.70
2018-09-25T20:47:02.528Z,100398.10
2018-09-25T20:49:35.466Z,100399.86
2018-09-25T20:52:08.544Z,100399.87
2018-09-25T20:54:41.513Z,100415.23
2018-09-25T20:57:14.545Z,100415.66
2018-09-25T20:59:47.458Z,100416.84
2018-09-25T21:02:20.599Z,100423.69
2018-09-25T21:04:53.462Z,100410.60
2018-09-25T21:07:26.477Z,100411.09
2018-09-25T21:09:59.396Z,100407.17
2018-09-25T21:12:32.682Z,100399.16
2018-09-25T21:15:05.798Z,100405.75
2018-09-25T21:17:38.722Z,100413.52
2018-09-25T21:20:11.776Z,100406.94
2018-09-25T21:22:44.876Z,100395.45
2018-09-25T21:25:17.850Z,100405.80
2018-09-25T21:27:50.685Z,100404.30
2018-09-25T21:30:23.641Z,100403.78
2018-09-25T21:32:56.576Z,100398.77
2018-09-25T21:35:29.683Z,100402.50
2018-09-25T21:38:02.743Z,100403.27
2018-09-25T21:40:36.199Z,100398.81
2018-09-25T21:43:09.696Z,100393.99
2018-09-25T21:45:42.763Z,100393.84
2018-09-25T21:48:15.728Z,100393.76
2018-09-25T21:50:48.796Z,100387.55
2018-09-25T21:53:21.778Z,100384.39
2018-09-25T21:55:54.817Z,100371.86
2018-09-25T21:58:27.721Z,100376.22
2018-09-25T22:01:00.695Z,100376.77
2018-09-25T22:03:33.632Z,100372.97
2018-09-25T22:06:07.281Z,100375.27
2018-09-25T22:08:40.458Z,100362.91
2018-09-25T22:11:13.361Z,100367.45
2018-09-25T22:13:46.484Z,100359.70
2018-09-25T22:16:19.374Z,100360.09
2018-09-25T22:18:52.403Z,100352.63
2018-09-25T22:21:25.310Z,100353.99
2018-09-25T22:23:58.840Z,100350.77
2018-09-25T22:26:31.760Z,100348.14
2018-09-25T22:29:04.789Z,100345.27
2018-09-25T22:31:37.656Z,100350.23
2018-09-25T22:34:10.610Z,100338.23
2018-09-25T22:36:44.225Z,100341.49
2018-09-25T22:39:17.088Z,100338.08
2018-09-25T22:41:50.031Z,100328.50
2018-09-25T22:44:23.054Z,100337.50
2018-09-25T22:46:56.147Z,100336.13
2018-09-25T22:49:29.103Z,100329.73
2018-09-25T22:52:02.073Z,100332.59
2018-09-25T22:54:35.566Z,100335.52
2018-09-25T22:57:08.463Z,100333.08
2018-09-25T22:59:41.454Z,100328.00
2018-09-25T23:02:14.800Z,100324.48
2018-09-25T23:04:47.731Z,100325.13
2018-09-25T23:07:20.719Z,100315.83
2018-09-25T23:09:53.615Z,100317.84
2018-09-25T23:12:26.598Z,100311.91
2018-09-25T23:14:59.604Z,100310.89
2018-09-25T23:17:32.651Z,100308.63
2018-09-25T23:20:05.652Z,100307.67
2018-09-25T23:22:38.649Z,100305.37
2018-09-25T23:25:11.579Z,100312.56
2018-09-25T23:27:44.716Z,100311.22
2018-09-25T23:30:17.702Z,100316.45
2018-09-25T23:32:50.804Z,100308.60
2018-09-25T23:35:23.753Z,100299.84
2018-09-25T23:37:56.691Z,100297.78
2018-09-25T23:40:47.573Z,100297.75
2018-09-25T23:43:24.523Z,100293.57
2018-09-25T23:46:02.442Z,100289.16
2018-09-25T23:48:37.288Z,100297.84
2018-09-25T23:51:10.295Z,100291.82
2018-09-25T23:53:44.022Z,100299.68
2018-09-25T23:56:17.769Z,100293.23
2018-09-25T23:58:49.926Z,100291.33
